createdAt,value
2022-10-12T00:01:52.902Z,4.20
2022-10-12T00:06:54.795Z,4.10
2022-10-12T00:11:56.607Z,4.10
2022-10-12T00:16:58.590Z,4.10
2022-10-12T00:22:00.544Z,3.90
2022-10-12T00:27:02.374Z,3.70
2022-10-12T00:32:04.732Z,3.80
2022-10-12T00:37:06.504Z,3.90
2022-10-12T00:42:11.927Z,4.00
2022-10-12T00:47:37.181Z,3.90
2022-10-12T00:52:50.480Z,4.00
2022-10-12T00:57:54.696Z,3.90
2022-10-12T01:02:57.172Z,3.90
2022-10-12T01:08:00.672Z,3.80
2022-10-12T01:13:02.695Z,3.90
2022-10-12T01:18:12.216Z,3.80
2022-10-12T01:23:44.407Z,3.80
2022-10-12T01:29:13.699Z,3.70
2022-10-12T01:34:22.325Z,3.70
2022-10-12T01:39:49.597Z,3.70
2022-10-12T01:44:51.407Z,3.80
2022-10-12T01:49:53.560Z,3.70
2022-10-12T01:55:14.936Z,3.60
2022-10-12T02:00:18.143Z,3.60
2022-10-12T02:05:35.070Z,3.50
2022-10-12T02:11:04.856Z,3.40
2022-10-12T02:16:12.264Z,3.50
2022-10-12T02:21:19.826Z,3.50
2022-10-12T02:26:22.134Z,3.50
2022-10-12T02:31:28.596Z,3.50
2022-10-12T02:36:56.803Z,3.50
2022-10-12T02:42:05.725Z,3.40
2022-10-12T02:47:10.242Z,3.40
2022-10-12T02:52:12.296Z,3.30
2022-10-12T02:57:14.080Z,3.40
2022-10-12T03:02:15.880Z,3.20
2022-10-12T03:07:17.731Z,3.20
2022-10-12T03:12:19.534Z,3.30
2022-10-12T03:17:21.335Z,3.30
2022-10-12T03:22:23.167Z,3.40
2022-10-12T03:27:25.003Z,3.30
2022-10-12T03:32:26.888Z,3.10
2022-10-12T03:37:28.730Z,3.10
2022-10-12T03:42:30.980Z,3.20
2022-10-12T03:47:32.986Z,3.20
2022-10-12T03:52:34.831Z,3.20
2022-10-12T03:57:37.006Z,3.10
2022-10-12T04:02:39.892Z,2.90
2022-10-12T04:07:41.689Z,2.90
2022-10-12T04:12:43.496Z,3.00
2022-10-12T04:17:45.358Z,3.00
2022-10-12T04:22:47.139Z,3.10
2022-10-12T04:27:48.920Z,3.10
2022-10-12T04:32:52.325Z,3.10
2022-10-12T04:37:54.143Z,3.00
2022-10-12T04:42:56.219Z,3.00
2022-10-12T04:47:58.013Z,2.60
2022-10-12T04:52:59.882Z,2.50
2022-10-12T04:58:01.751Z,2.40
2022-10-12T05:03:04.032Z,2.40
2022-10-12T05:08:06.083Z,2.60
2022-10-12T05:13:08.048Z,2.70
2022-10-12T05:18:10.540Z,2.70
2022-10-12T05:23:12.628Z,2.60
2022-10-12T05:28:14.500Z,2.60
2022-10-12T05:33:16.319Z,2.70
2022-10-12T05:38:19.085Z,2.90
2022-10-12T05:43:21.045Z,3.00
2022-10-12T05:48:23.145Z,3.20
2022-10-12T05:53:25.014Z,3.40
2022-10-12T05:58:28.939Z,3.60
2022-10-12T06:03:34.860Z,3.90
2022-10-12T06:08:37.130Z,4.00
2022-10-12T06:13:39.025Z,4.20
2022-10-12T06:18:40.835Z,4.40
2022-10-12T06:23:42.707Z,4.70
2022-10-12T06:28:44.576Z,4.90
2022-10-12T06:33:46.427Z,5.30
2022-10-12T06:38:48.296Z,5.40
2022-10-12T06:43:50.138Z,5.70
2022-10-12T06:48:51.931Z,6.00
2022-10-12T06:53:56.929Z,6.20
2022-10-12T06:58:58.724Z,6.60
2022-10-12T07:04:01.071Z,6.90
2022-10-12T07:09:03.123Z,7.10
2022-10-12T11:09:43.956Z,12.90
2022-10-12T11:14:58.150Z,12.50
2022-10-12T11:20:28.310Z,12.70
2022-10-12T11:25:38.934Z,12.80
2022-10-12T11:30:46.660Z,12.90
2022-10-12T11:35:48.937Z,13.70
2022-10-12T11:41:09.194Z,13.40
2022-10-12T11:46:23.280Z,13.10
2022-10-12T11:51:25.250Z,13.30
2022-10-12T11:56:45.069Z,13.50
2022-10-12T12:01:56.837Z,13.40
2022-10-12T12:06:58.652Z,13.30
2022-10-12T12:12:13.783Z,13.40
2022-10-12T12:17:31.742Z,13.60
2022-10-12T12:22:37.096Z,13.50
2022-10-12T12:27:51.794Z,13.80
2022-10-12T12:33:00.176Z,13.70
2022-10-12T12:38:14.352Z,13.60
2022-10-12T12:43:20.694Z,13.70
2022-10-12T12:48:41.545Z,13.50
2022-10-12T12:54:06.444Z,13.40
2022-10-12T12:59:59.250Z,13.00
2022-10-12T13:05:44.184Z,13.00
2022-10-12T13:11:01.953Z,12.80
2022-10-12T13:16:24.978Z,12.80
2022-10-12T13:21:40.728Z,12.80
2022-10-12T13:26:45.706Z,12.90
2022-10-12T13:31:52.660Z,12.90
2022-10-12T13:37:02.933Z,13.20
2022-10-12T13:42:05.369Z,13.20
2022-10-12T13:47:29.696Z,12.90
2022-10-12T13:52:33.762Z,12.70
2022-10-12T13:57:48.418Z,12.50
2022-10-12T14:02:58.932Z,12.60
2022-10-12T14:08:07.548Z,12.40
2022-10-12T14:13:15.143Z,12.40
2022-10-12T14:18:35.814Z,12.20
2022-10-12T14:23:45.629Z,12.20
2022-10-12T14:28:47.527Z,12.00
2022-10-12T14:33:49.499Z,12.00
2022-10-12T14:38:52.474Z,11.90
2022-10-12T14:44:12.287Z,11.90
2022-10-12T14:49:19.911Z,11.90
2022-10-12T14:54:23.052Z,11.90
2022-10-12T14:59:24.811Z,11.70
2022-10-12T15:04:26.613Z,11.50
2022-10-12T15:09:28.428Z,11.40
2022-10-12T15:14:30.224Z,11.40
2022-10-12T15:19:32.024Z,11.30
2022-10-12T15:24:34.170Z,11.20
2022-10-12T15:29:36.016Z,11.00
2022-10-12T15:34:38.393Z,10.60
2022-10-12T15:39:41.022Z,10.30
2022-10-12T15:44:42.843Z,10.10
2022-10-12T15:49:44.655Z,9.80
2022-10-12T15:54:48.955Z,9.30
2022-10-12T15:59:52.445Z,9.20
2022-10-12T16:04:54.276Z,9.00
2022-10-12T16:09:56.104Z,8.90
2022-10-12T16:14:57.887Z,8.90
2022-10-12T16:19:59.763Z,8.60
2022-10-12T16:25:03.305Z,8.00
2022-10-12T16:30:07.264Z,8.00
2022-10-12T16:35:09.318Z,7.90
2022-10-12T16:40:12.174Z,7.60
2022-10-12T16:45:13.976Z,7.40
2022-10-12T16:50:16.623Z,7.30
2022-10-12T16:55:19.276Z,7.00
2022-10-12T17:00:21.657Z,7.00
2022-10-12T17:05:23.519Z,6.90
2022-10-12T17:10:25.369Z,6.70
2022-10-12T17:15:27.245Z,6.60
2022-10-12T17:20:29.112Z,6.50
2022-10-12T17:25:30.971Z,6.30
2022-10-12T17:30:36.059Z,6.20
2022-10-12T17:35:40.911Z,6.00
2022-10-12T17:40:42.892Z,5.90
2022-10-12T17:45:44.699Z,5.90
2022-10-12T17:50:46.491Z,5.90
2022-10-12T17:55:49.168Z,5.80
2022-10-12T18:00:51.164Z,5.70
2022-10-12T18:05:53.067Z,5.60
2022-10-12T18:10:54.981Z,5.50
2022-10-12T18:15:56.993Z,5.50
2022-10-12T18:20:58.855Z,5.40
2022-10-12T18:26:05.885Z,5.40
2022-10-12T18:31:08.053Z,5.30
2022-10-12T18:36:10.884Z,5.20
2022-10-12T18:41:15.858Z,5.20
2022-10-12T18:46:18.562Z,5.20
2022-10-12T18:51:24.969Z,5.10
2022-10-12T18:56:27.578Z,5.10
2022-10-12T19:01:30.788Z,5.00
2022-10-12T19:06:34.153Z,4.90
2022-10-12T19:11:37.401Z,4.90
2022-10-12T19:16:39.336Z,4.80
2022-10-12T19:21:41.485Z,4.80
2022-10-12T19:26:43.923Z,4.80
2022-10-12T19:31:48.374Z,4.70
2022-10-12T19:36:50.700Z,4.70
2022-10-12T19:41:52.829Z,4.60
2022-10-12T19:46:54.749Z,4.70
2022-10-12T19:51:56.987Z,4.60
2022-10-12T19:56:58.864Z,4.60
2022-10-12T20:02:00.698Z,4.60
2022-10-12T20:07:02.575Z,4.60
2022-10-12T20:12:04.379Z,4.60
2022-10-12T20:17:06.159Z,4.60
2022-10-12T20:22:08.644Z,4.50
2022-10-12T20:27:10.485Z,4.50
2022-10-12T20:32:12.357Z,4.40
2022-10-12T20:37:16.821Z,4.30
2022-10-12T20:42:21.952Z,4.30
2022-10-12T20:47:26.003Z,4.30
2022-10-12T20:52:28.242Z,4.30
2022-10-12T20:57:30.255Z,4.30
2022-10-12T21:02:33.484Z,4.30
2022-10-12T21:07:36.015Z,4.30
2022-10-12T21:12:37.807Z,4.20
2022-10-12T21:17:39.600Z,4.20
2022-10-12T21:22:45.469Z,4.10
2022-10-12T21:27:47.327Z,4.10
2022-10-12T21:32:49.132Z,4.10
2022-10-12T21:37:50.968Z,4.10
2022-10-12T21:42:52.772Z,4.10
2022-10-12T21:47:54.613Z,4.00
2022-10-12T21:53:00.236Z,4.00
2022-10-12T21:58:02.279Z,3.90
2022-10-12T22:03:04.247Z,3.90
2022-10-12T22:08:07.800Z,4.00
2022-10-12T22:13:09.661Z,3.90
2022-10-12T22:18:11.669Z,3.90
2022-10-12T22:23:13.459Z,3.90
2022-10-12T22:28:16.472Z,3.90
2022-10-12T22:33:18.387Z,3.90
2022-10-12T22:38:20.287Z,4.00
2022-10-12T22:43:22.462Z,4.00
2022-10-12T22:48:25.006Z,4.00
2022-10-12T22:53:28.022Z,4.00
2022-10-12T22:58:30.529Z,3.90
2022-10-12T23:03:33.100Z,3.90
2022-10-12T23:08:37.899Z,3.80
2022-10-12T23:13:40.517Z,3.70
2022-10-12T23:18:42.352Z,3.60
2022-10-12T23:23:45.419Z,3.60
2022-10-12T23:28:48.306Z,3.60
2022-10-12T23:33:55.480Z,3.60
2022-10-12T23:39:00.922Z,3.60
2022-10-12T23:44:02.736Z,3.60
2022-10-12T23:49:04.532Z,3.60
2022-10-12T23:54:06.346Z,3.50
2022-10-12T23:59:08.101Z,3.40
